< < Back
Terminal Aerodrome Forecast


Current Version              Previous Versions:   1  2  3  4  5  6  7  8  9  

Terminal Aerodrome Forecast

504
FTUS42 KJAX 251150 CCA
TAFJAX
TAF COR
KJAX 251150Z 2512/2612 00000KT P6SM FEW025 SCT250
      TEMPO 2512/2513 5SM BR
     FM251300 35005KT P6SM SCT030
     FM251700 06010KT P6SM VCTS BKN040CB
     FM252200 07007KT P6SM VCSH SCT050 BKN250
     FM260100 VRB03KT P6SM BKN250=

Latest METAR

650
SAUS80 KWBC 251200
MTRJAX
METAR KJAX 251156Z 00000KT 6SM R08/2000VP6000FT BR FEW025 FEW250 22/22
A3005 RMK AO2 SLP177 CB DSNT NE T02170217 10222 20200
51013


USA.gov is the U.S. government's official web portal to all federal, state and local government web resources and services.